Time;durP1;ratioP1;P1;durP2;ratioP2;P2;SDS_P1;SDS_P2;PMS_P1;PMS_P2;Temp;Humidity;BMP_temperature;BMP_pressure;BME280_temperature;BME280_humidity;BME280_pressure;Samples;Min_cycle;Max_cycle;Signal;HPM_P1;HPM_P2
2021/06/19 00:00:02;;;;;;;13.90;4.83;;;24.30;99.90;;;;;;5054846;28;20671;-81
2021/06/19 00:02:28;;;;;;;9.30;5.40;;;24.30;99.90;;;;;;5058947;28;20621;-82
2021/06/19 00:04:55;;;;;;;9.70;3.90;;;24.20;99.90;;;;;;5058604;28;21017;-81
2021/06/19 00:07:23;;;;;;;9.47;4.37;;;24.30;99.90;;;;;;5055949;28;20608;-81
2021/06/19 00:09:50;;;;;;;6.60;3.97;;;24.30;99.90;;;;;;5059001;28;20964;-81
2021/06/19 00:12:18;;;;;;;6.53;4.30;;;24.20;99.60;;;;;;5056687;28;20625;-81
2021/06/19 00:14:46;;;;;;;13.23;5.70;;;24.20;99.60;;;;;;5060046;28;20633;-82
2021/06/19 00:17:13;;;;;;;8.73;4.53;;;24.20;99.90;;;;;;5058762;28;20597;-81
2021/06/19 00:19:40;;;;;;;9.83;3.60;;;24.20;99.90;;;;;;5058221;28;21256;-81
2021/06/19 00:22:07;;;;;;;8.87;5.07;;;24.10;99.50;;;;;;5056512;28;20640;-81
2021/06/19 00:24:38;;;;;;;8.77;3.83;;;24.10;99.90;;;;;;5058417;28;20664;-81
2021/06/19 00:27:06;;;;;;;6.43;3.80;;;24.10;99.20;;;;;;5057908;28;21077;-81
2021/06/19 00:29:33;;;;;;;8.30;4.70;;;24.10;99.40;;;;;;5059532;28;20652;-81
2021/06/19 00:32:00;;;;;;;9.80;4.60;;;24.10;99.90;;;;;;5056297;28;20644;-84
2021/06/19 00:34:26;;;;;;;8.50;4.17;;;24.00;99.90;;;;;;5059527;28;20632;-81
2021/06/19 00:36:53;;;;;;;14.03;5.37;;;23.90;99.90;;;;;;5058783;28;20621;-81
2021/06/19 00:39:20;;;;;;;10.30;4.10;;;23.80;99.90;;;;;;5057164;28;20628;-81
2021/06/19 00:41:48;;;;;;;9.80;4.53;;;23.80;99.90;;;;;;5054167;28;20637;-83
2021/06/19 00:44:17;;;;;;;9.03;5.20;;;23.80;99.90;;;;;;5059368;28;21027;-83
2021/06/19 00:46:45;;;;;;;8.50;3.40;;;23.80;99.90;;;;;;5057451;28;20951;-81
2021/06/19 00:49:11;;;;;;;9.13;5.00;;;23.80;99.90;;;;;;5059757;28;20668;-81
2021/06/19 00:51:38;;;;;;;11.73;5.00;;;23.70;99.90;;;;;;5055916;28;20621;-81
2021/06/19 00:54:05;;;;;;;9.50;3.70;;;23.80;99.90;;;;;;5059266;28;20957;-81
2021/06/19 00:56:36;;;;;;;10.40;4.87;;;23.80;99.90;;;;;;5058221;28;20624;-81
2021/06/19 00:59:05;;;;;;;15.27;5.90;;;23.80;99.90;;;;;;5057110;28;20976;-81
2021/06/19 01:01:33;;;;;;;8.80;4.50;;;23.80;99.90;;;;;;5057952;28;21159;-81
2021/06/19 01:04:01;;;;;;;7.40;4.40;;;23.80;99.90;;;;;;5058402;28;20625;-81
2021/06/19 01:06:27;;;;;;;7.23;4.40;;;23.80;99.90;;;;;;5056751;28;21038;-81
2021/06/19 01:08:54;;;;;;;17.30;5.43;;;23.70;99.90;;;;;;5057886;28;20616;-81
2021/06/19 01:11:22;;;;;;;11.63;4.63;;;23.60;99.90;;;;;;5059604;28;21214;-80
2021/06/19 01:13:49;;;;;;;12.83;6.10;;;23.60;99.90;;;;;;5060036;28;20699;-81
2021/06/19 01:16:18;;;;;;;12.53;4.97;;;23.60;99.90;;;;;;5057263;28;21044;-81
2021/06/19 01:18:45;;;;;;;11.40;4.60;;;23.50;99.90;;;;;;5056739;28;20628;-81
2021/06/19 01:21:14;;;;;;;8.70;5.10;;;23.50;99.90;;;;;;5057319;28;20757;-81
2021/06/19 01:23:42;;;;;;;11.37;4.37;;;23.50;99.90;;;;;;5058365;28;21003;-81
2021/06/19 01:26:12;;;;;;;13.93;4.97;;;23.40;99.90;;;;;;5059150;28;20692;-81
2021/06/19 01:28:39;;;;;;;7.63;4.30;;;23.40;99.90;;;;;;5056726;28;20618;-81
2021/06/19 01:31:06;;;;;;;14.30;4.37;;;23.40;99.90;;;;;;5057701;28;20671;-81
2021/06/19 01:33:33;;;;;;;12.23;4.33;;;23.40;99.90;;;;;;5060337;28;21005;-81
2021/06/19 01:35:59;;;;;;;6.40;4.23;;;23.40;99.90;;;;;;5059459;28;20977;-81
2021/06/19 01:38:26;;;;;;;9.50;4.50;;;23.50;99.90;;;;;;5058062;28;20636;-80
2021/06/19 01:40:53;;;;;;;11.10;4.10;;;23.50;99.90;;;;;;5057103;28;20652;-82
2021/06/19 01:43:21;;;;;;;9.10;5.00;;;23.30;99.90;;;;;;5059071;28;20625;-81
2021/06/19 01:45:48;;;;;;;11.00;4.33;;;23.20;99.90;;;;;;5058485;28;20668;-82
2021/06/19 01:48:15;;;;;;;11.47;5.00;;;23.30;99.90;;;;;;5054548;28;21215;-80
2021/06/19 01:50:42;;;;;;;9.37;4.50;;;23.20;99.90;;;;;;5056127;28;20648;-80
2021/06/19 01:53:08;;;;;;;12.10;5.30;;;23.20;99.90;;;;;;5056991;28;21218;-80
2021/06/19 01:55:35;;;;;;;10.07;4.03;;;23.30;99.90;;;;;;5058173;28;20621;-80
2021/06/19 01:58:03;;;;;;;9.87;4.80;;;23.30;99.90;;;;;;5057707;28;20750;-80
2021/06/19 02:00:34;;;;;;;8.70;4.83;;;23.20;99.90;;;;;;5056161;28;20675;-83
2021/06/19 02:03:01;;;;;;;7.93;4.13;;;23.10;99.90;;;;;;5056494;28;20637;-82
2021/06/19 02:05:28;;;;;;;12.30;4.80;;;23.10;99.90;;;;;;5056792;28;21036;-82
2021/06/19 02:07:56;;;;;;;11.60;4.53;;;23.00;99.90;;;;;;5053762;28;20624;-81
2021/06/19 02:10:26;;;;;;;13.83;4.50;;;23.00;99.90;;;;;;5057815;28;21043;-81
2021/06/19 02:12:53;;;;;;;7.10;4.80;;;22.90;99.90;;;;;;5055867;28;20634;-81
2021/06/19 02:15:21;;;;;;;9.20;4.60;;;22.90;99.90;;;;;;5057927;28;21089;-81
2021/06/19 02:17:49;;;;;;;9.03;3.70;;;23.00;99.90;;;;;;5055689;28;20614;-81
2021/06/19 02:20:18;;;;;;;8.40;3.90;;;22.90;99.90;;;;;;5056236;28;20663;-81
2021/06/19 02:22:45;;;;;;;12.83;5.23;;;22.80;99.90;;;;;;5041165;28;20617;-82
2021/06/19 02:25:14;;;;;;;16.20;4.77;;;22.60;99.90;;;;;;5055789;28;21282;-81
2021/06/19 02:27:47;;;;;;;8.67;5.10;;;22.70;99.90;;;;;;5057009;28;20633;-81
2021/06/19 02:30:14;;;;;;;6.93;4.13;;;22.70;99.90;;;;;;5056059;28;20668;-81
2021/06/19 02:32:41;;;;;;;5.03;3.63;;;22.60;99.90;;;;;;5053013;28;20624;-82
2021/06/19 02:35:11;;;;;;;7.60;4.43;;;22.60;99.90;;;;;;5055902;28;20628;-81
2021/06/19 02:37:38;;;;;;;5.73;3.53;;;22.70;99.90;;;;;;5055466;28;20602;-81
2021/06/19 02:40:07;;;;;;;9.83;3.80;;;22.60;99.90;;;;;;5055686;28;20644;-82
2021/06/19 02:42:34;;;;;;;4.80;3.43;;;22.80;99.90;;;;;;5057464;28;20624;-81
2021/06/19 02:45:03;;;;;;;6.73;4.60;;;22.80;99.90;;;;;;5055520;28;20657;-81
2021/06/19 02:47:30;;;;;;;8.10;4.13;;;22.70;99.90;;;;;;5056247;28;20714;-81
2021/06/19 02:49:56;;;;;;;9.80;4.37;;;22.50;99.90;;;;;;5057113;28;20782;-81
2021/06/19 02:52:25;;;;;;;8.70;4.43;;;22.40;99.90;;;;;;5052257;28;20624;-81
2021/06/19 02:54:51;;;;;;;9.50;4.07;;;22.40;99.90;;;;;;5057703;28;20642;-82
2021/06/19 02:57:18;;;;;;;12.07;4.70;;;22.20;99.90;;;;;;5056224;28;20641;-81
2021/06/19 02:59:45;;;;;;;10.77;5.00;;;22.30;99.90;;;;;;5055499;28;20656;-81
2021/06/19 03:02:11;;;;;;;6.77;4.57;;;22.30;99.90;;;;;;5057573;28;20629;-81
2021/06/19 03:04:38;;;;;;;13.17;4.70;;;22.40;99.90;;;;;;5055849;28;20625;-81
2021/06/19 03:07:05;;;;;;;11.53;4.30;;;22.50;99.90;;;;;;5055100;28;21235;-81
2021/06/19 03:09:33;;;;;;;11.73;5.37;;;22.30;99.90;;;;;;5055581;28;20659;-81
2021/06/19 03:12:00;;;;;;;6.37;4.97;;;22.30;99.90;;;;;;5057215;28;20616;-81
2021/06/19 03:14:26;;;;;;;9.37;5.50;;;22.20;99.90;;;;;;5057343;28;20629;-81
2021/06/19 03:16:55;;;;;;;7.23;4.50;;;22.10;99.90;;;;;;5056533;28;20982;-81
2021/06/19 03:19:21;;;;;;;8.10;5.00;;;22.20;99.90;;;;;;5055784;28;20636;-81
2021/06/19 03:21:48;;;;;;;11.97;5.93;;;22.10;99.90;;;;;;5054714;28;20618;-81
2021/06/19 03:24:15;;;;;;;8.43;4.70;;;22.10;99.90;;;;;;5058074;28;20659;-81
2021/06/19 03:26:43;;;;;;;12.13;5.10;;;22.10;99.90;;;;;;5058868;28;20657;-82
2021/06/19 03:29:10;;;;;;;8.80;5.17;;;22.20;99.90;;;;;;5055461;28;20633;-82
2021/06/19 03:31:36;;;;;;;9.23;5.23;;;22.20;99.90;;;;;;5054316;28;20629;-82
2021/06/19 03:34:05;;;;;;;8.97;4.90;;;22.10;99.90;;;;;;5055431;28;20629;-81
2021/06/19 03:36:32;;;;;;;7.57;4.20;;;22.20;99.90;;;;;;5055159;28;20629;-81
2021/06/19 03:38:58;;;;;;;7.67;4.90;;;22.20;99.90;;;;;;5055433;28;20624;-81
2021/06/19 03:41:25;;;;;;;11.50;5.77;;;22.20;99.90;;;;;;5055753;28;20649;-82
2021/06/19 03:43:53;;;;;;;12.70;5.20;;;22.10;99.90;;;;;;5057927;28;21246;-82
2021/06/19 03:46:20;;;;;;;7.03;4.97;;;22.20;99.90;;;;;;5056144;28;20656;-82
2021/06/19 03:48:46;;;;;;;8.60;4.70;;;22.20;99.90;;;;;;5060081;28;20633;-81
2021/06/19 03:51:13;;;;;;;11.00;5.10;;;22.20;99.90;;;;;;5058756;28;20763;-80
2021/06/19 03:53:40;;;;;;;10.13;5.73;;;22.10;99.90;;;;;;5061055;28;20629;-80
2021/06/19 03:56:07;;;;;;;10.37;5.47;;;22.10;99.90;;;;;;5062155;28;20735;-80
2021/06/19 03:58:33;;;;;;;9.37;4.83;;;22.10;99.90;;;;;;5060492;28;20616;-80
2021/06/19 04:01:01;;;;;;;12.60;6.40;;;22.10;99.90;;;;;;5057252;28;20649;-80
2021/06/19 04:03:28;;;;;;;9.23;5.87;;;22.10;99.90;;;;;;5060061;28;20633;-80
2021/06/19 04:05:55;;;;;;;13.00;5.23;;;21.90;99.90;;;;;;5059926;28;20728;-80
2021/06/19 04:08:22;;;;;;;13.23;5.43;;;21.90;99.90;;;;;;5059652;28;20652;-80
2021/06/19 04:10:48;;;;;;;11.90;6.40;;;21.80;99.90;;;;;;5058061;28;20657;-82
2021/06/19 04:13:15;;;;;;;9.50;5.30;;;21.80;99.90;;;;;;5055474;28;20641;-82
2021/06/19 04:15:42;;;;;;;13.50;6.60;;;21.80;99.90;;;;;;5060595;28;20992;-82
2021/06/19 04:18:10;;;;;;;14.07;6.47;;;21.80;99.90;;;;;;5060862;28;20632;-82
2021/06/19 04:20:37;;;;;;;14.50;5.30;;;21.90;99.90;;;;;;5060259;28;20664;-82
2021/06/19 04:23:04;;;;;;;19.70;6.47;;;21.90;99.90;;;;;;5060579;28;20621;-82
2021/06/19 04:25:31;;;;;;;12.83;6.97;;;21.80;99.90;;;;;;5060131;28;20688;-82
2021/06/19 04:27:58;;;;;;;12.27;7.33;;;21.80;99.90;;;;;;5058116;28;21422;-82
2021/06/19 04:30:27;;;;;;;11.07;6.87;;;21.80;99.90;;;;;;5058937;28;20656;-83
2021/06/19 04:32:56;;;;;;;9.30;7.40;;;21.90;99.90;;;;;;5059645;28;20613;-83
2021/06/19 04:35:26;;;;;;;8.57;5.53;;;21.90;99.90;;;;;;5063318;28;20616;-82
2021/06/19 04:37:53;;;;;;;10.10;5.43;;;22.00;99.90;;;;;;5061510;28;20616;-83
2021/06/19 04:40:27;;;;;;;10.53;6.10;;;22.10;99.90;;;;;;5061424;28;20666;-83
2021/06/19 04:43:00;;;;;;;12.53;5.50;;;22.10;99.90;;;;;;5062826;28;21089;-83
2021/06/19 04:45:27;;;;;;;12.03;6.07;;;22.10;99.90;;;;;;5060055;28;21269;-82
2021/06/19 04:47:55;;;;;;;10.80;6.97;;;22.10;99.90;;;;;;5060401;28;21281;-82
2021/06/19 04:50:24;;;;;;;10.77;6.27;;;22.00;99.90;;;;;;5059801;28;20631;-82
2021/06/19 04:52:51;;;;;;;11.30;6.73;;;22.10;99.90;;;;;;5055287;28;20696;-82
2021/06/19 04:55:19;;;;;;;6.70;5.67;;;22.10;99.90;;;;;;5062600;28;20634;-83
2021/06/19 04:57:52;;;;;;;11.80;6.57;;;22.30;99.90;;;;;;5059190;28;20671;-82
2021/06/19 05:00:20;;;;;;;10.83;6.23;;;22.30;99.90;;;;;;5059252;28;20628;-81
2021/06/19 05:02:48;;;;;;;10.33;5.80;;;22.10;99.90;;;;;;5059123;28;20610;-82
2021/06/19 05:05:15;;;;;;;15.73;6.90;;;22.10;99.90;;;;;;5059777;28;21557;-85
2021/06/19 05:07:45;;;;;;;14.20;7.23;;;21.90;99.90;;;;;;5058638;28;20619;-82
2021/06/19 05:10:13;;;;;;;12.97;5.73;;;21.90;99.90;;;;;;5059423;28;20625;-82
2021/06/19 05:12:43;;;;;;;14.30;8.40;;;21.80;99.90;;;;;;5041372;28;20726;-82
2021/06/19 05:15:12;;;;;;;10.57;6.97;;;22.00;99.90;;;;;;5059243;28;20664;-82
2021/06/19 05:17:40;;;;;;;12.20;7.97;;;21.90;99.90;;;;;;5061185;28;20633;-82
2021/06/19 05:20:08;;;;;;;17.67;7.80;;;21.90;99.90;;;;;;5060161;28;20725;-83
2021/06/19 05:22:35;;;;;;;8.10;6.63;;;21.80;99.90;;;;;;5060026;28;20668;-82
2021/06/19 05:25:04;;;;;;;10.00;6.60;;;21.90;99.90;;;;;;5059647;28;20615;-82
2021/06/19 05:27:31;;;;;;;10.90;6.23;;;22.10;99.90;;;;;;5058766;28;21032;-82
2021/06/19 05:30:04;;;;;;;12.67;6.40;;;22.10;99.90;;;;;;5081279;28;20596;-96
2021/06/19 05:32:31;;;;;;;10.27;7.60;;;22.00;99.90;;;;;;5089302;28;20653;-95
2021/06/19 05:34:59;;;;;;;11.53;7.37;;;22.10;99.90;;;;;;5087868;28;20623;-96
2021/06/19 05:37:26;;;;;;;11.67;7.60;;;22.20;99.90;;;;;;5271388;22;21854;-95
2021/06/19 05:39:59;;;;;;;11.23;7.20;;;22.20;99.90;;;;;;5097000;28;20622;-96
2021/06/19 05:42:48;;;;;;;15.97;7.60;;;22.30;99.90;;;;;;5106019;28;20620;-96
2021/06/19 05:45:32;;;;;;;11.03;7.73;;;22.40;99.90;;;;;;5091556;28;20589;-95
2021/06/19 05:48:06;;;;;;;11.60;7.53;;;22.40;99.90;;;;;;5081704;28;20654;-96
2021/06/19 05:50:33;;;;;;;9.47;7.17;;;22.40;99.90;;;;;;5071023;28;20646;-96
2021/06/19 05:53:00;;;;;;;11.70;7.40;;;22.40;99.90;;;;;;5073863;28;20628;-96
2021/06/19 05:55:45;;;;;;;9.80;6.37;;;22.40;99.90;;;;;;5076727;28;20626;-96
2021/06/19 05:58:13;;;;;;;12.67;7.83;;;22.40;99.90;;;;;;5071449;28;20654;-96
2021/06/19 06:00:41;;;;;;;10.40;7.00;;;22.40;99.90;;;;;;5076018;28;20660;-96
2021/06/19 06:03:13;;;;;;;15.33;8.10;;;22.40;99.90;;;;;;5066516;28;20646;-93
2021/06/19 06:18:39;;;;;;;8.40;7.67;;;22.80;99.90;;;;;;5230807;22;20655;-96
2021/06/19 06:21:23;;;;;;;9.43;7.40;;;22.90;99.90;;;;;;5109303;28;20624;-96
2021/06/19 06:29:23;;;;;;;10.77;6.97;;;23.20;99.90;;;;;;5307393;22;20666;-96
2021/06/19 06:31:56;;;;;;;15.80;7.63;;;23.30;99.90;;;;;;5070433;28;20897;-95
2021/06/19 06:34:25;;;;;;;13.43;8.20;;;23.30;99.90;;;;;;5065669;28;20621;-95
2021/06/19 06:36:53;;;;;;;11.03;7.63;;;23.50;99.90;;;;;;5059286;28;21058;-94
2021/06/19 06:39:21;;;;;;;17.50;7.00;;;23.50;99.90;;;;;;5057994;28;20648;-94
2021/06/19 06:41:48;;;;;;;8.83;7.07;;;23.70;99.90;;;;;;5057758;28;20638;-93
2021/06/19 06:44:16;;;;;;;16.60;8.17;;;23.80;99.90;;;;;;5063449;28;20634;-94
2021/06/19 06:46:44;;;;;;;12.93;7.13;;;23.80;99.90;;;;;;5058326;28;20701;-94
2021/06/19 06:49:12;;;;;;;12.93;7.53;;;23.80;99.90;;;;;;5060364;28;21027;-93
2021/06/19 06:51:40;;;;;;;10.27;6.53;;;24.00;99.90;;;;;;5056169;28;20753;-94
2021/06/19 06:54:07;;;;;;;10.87;7.00;;;24.10;99.90;;;;;;5058955;28;20629;-93
2021/06/19 06:56:34;;;;;;;8.23;7.43;;;24.10;99.90;;;;;;5058650;28;20624;-93
2021/06/19 06:59:04;;;;;;;15.07;8.60;;;24.30;99.90;;;;;;5058035;28;21122;-93
2021/06/19 07:01:31;;;;;;;15.57;7.33;;;24.40;99.90;;;;;;5057902;28;20633;-93
2021/06/19 07:03:59;;;;;;;9.77;7.63;;;24.40;99.90;;;;;;5062392;28;20649;-93
2021/06/19 07:06:27;;;;;;;11.00;6.60;;;24.50;99.90;;;;;;5054727;28;21075;-93
2021/06/19 07:08:55;;;;;;;11.60;7.30;;;24.50;99.90;;;;;;5060100;28;20646;-92
2021/06/19 07:11:28;;;;;;;12.57;7.27;;;24.50;99.90;;;;;;5061140;28;20637;-92
2021/06/19 07:13:55;;;;;;;13.00;8.80;;;24.60;99.90;;;;;;5061201;28;20743;-92
2021/06/19 07:16:23;;;;;;;16.90;6.90;;;24.60;99.90;;;;;;5060191;28;20657;-93
2021/06/19 07:18:50;;;;;;;12.60;8.37;;;24.70;99.90;;;;;;5057180;28;20637;-92
2021/06/19 07:21:17;;;;;;;15.27;7.83;;;24.70;99.90;;;;;;5067879;28;21416;-93
2021/06/19 07:23:46;;;;;;;14.00;7.40;;;24.80;99.90;;;;;;5064404;28;21135;-91
2021/06/19 07:26:14;;;;;;;14.23;8.20;;;24.70;99.90;;;;;;5063255;28;21435;-91
2021/06/19 07:28:43;;;;;;;8.27;7.40;;;24.80;99.90;;;;;;5059821;28;20649;-92
2021/06/19 07:31:10;;;;;;;10.53;7.27;;;24.90;99.90;;;;;;5067803;28;21182;-91
2021/06/19 07:33:37;;;;;;;17.87;7.70;;;24.80;99.90;;;;;;5062108;28;21286;-91
2021/06/19 07:36:05;;;;;;;9.43;7.33;;;24.90;99.90;;;;;;5061930;28;20628;-92
2021/06/19 07:38:33;;;;;;;14.83;9.30;;;25.10;99.90;;;;;;5063233;28;21226;-92
2021/06/19 07:41:01;;;;;;;14.80;6.67;;;25.20;99.90;;;;;;5063355;28;20658;-93
2021/06/19 07:43:30;;;;;;;10.60;7.40;;;25.40;99.90;;;;;;5068739;28;20624;-92
2021/06/19 07:46:00;;;;;;;14.67;7.80;;;25.40;99.90;;;;;;5068918;28;20621;-92
2021/06/19 07:48:28;;;;;;;10.03;7.10;;;25.50;99.90;;;;;;5064521;28;20652;-92
2021/06/19 07:50:56;;;;;;;9.90;7.70;;;25.50;99.90;;;;;;5062152;28;20613;-92
2021/06/19 07:53:23;;;;;;;11.70;7.17;;;25.60;99.90;;;;;;5067034;28;20628;-92
2021/06/19 07:55:50;;;;;;;9.50;7.37;;;25.80;99.90;;;;;;5065873;28;21218;-91
2021/06/19 07:58:19;;;;;;;19.90;7.47;;;25.90;99.90;;;;;;5062633;28;20651;-92
2021/06/19 08:00:50;;;;;;;7.17;5.80;;;26.10;99.90;;;;;;5061185;28;20626;-93
2021/06/19 08:03:17;;;;;;;12.10;7.00;;;26.20;99.90;;;;;;5060911;28;20660;-92
2021/06/19 08:05:44;;;;;;;12.63;7.63;;;26.30;99.90;;;;;;5061474;28;20656;-92
2021/06/19 08:08:11;;;;;;;10.80;8.00;;;26.40;99.90;;;;;;5062590;28;20668;-93
2021/06/19 08:10:40;;;;;;;8.63;7.23;;;26.50;99.90;;;;;;5065335;28;20623;-94
2021/06/19 08:13:07;;;;;;;16.63;7.97;;;26.60;99.90;;;;;;5062034;28;20958;-94
2021/06/19 08:15:35;;;;;;;10.93;7.60;;;26.50;99.90;;;;;;5060464;28;20643;-94
2021/06/19 08:18:04;;;;;;;10.83;7.70;;;26.80;99.90;;;;;;5060214;28;20626;-94
2021/06/19 08:20:31;;;;;;;16.50;8.90;;;26.80;99.90;;;;;;5060827;28;20624;-95
2021/06/19 08:22:58;;;;;;;7.53;6.70;;;26.90;99.90;;;;;;5060082;28;21032;-94
2021/06/19 08:25:26;;;;;;;13.83;7.60;;;26.80;99.90;;;;;;5059015;28;20664;-94
2021/06/19 08:27:53;;;;;;;11.23;7.53;;;26.80;99.90;;;;;;5059678;28;20664;-95
2021/06/19 08:30:21;;;;;;;9.87;7.30;;;27.00;99.90;;;;;;5058316;28;20618;-93
2021/06/19 08:32:49;;;;;;;11.90;8.00;;;27.20;99.90;;;;;;5058052;28;20990;-93
2021/06/19 08:35:17;;;;;;;14.60;8.13;;;27.20;99.90;;;;;;5055537;28;20638;-94
2021/06/19 08:37:47;;;;;;;9.23;8.33;;;27.20;99.90;;;;;;5056336;28;20614;-94
2021/06/19 08:40:15;;;;;;;11.23;8.00;;;27.30;99.90;;;;;;5055999;28;20629;-94
2021/06/19 08:42:45;;;;;;;13.87;10.00;;;27.40;99.90;;;;;;5061953;28;20685;-94
2021/06/19 08:45:12;;;;;;;11.17;8.30;;;27.50;99.90;;;;;;5056740;28;20653;-92
2021/06/19 08:47:40;;;;;;;9.97;8.07;;;27.60;99.90;;;;;;5056767;28;20669;-93
2021/06/19 08:50:10;;;;;;;14.67;8.10;;;27.60;99.90;;;;;;5056894;28;20616;-93
2021/06/19 08:52:43;;;;;;;11.33;8.50;;;27.60;99.90;;;;;;5052935;28;20641;-94
2021/06/19 08:55:14;;;;;;;14.33;8.17;;;27.70;99.90;;;;;;5056654;28;20748;-93
2021/06/19 08:57:42;;;;;;;9.30;8.30;;;27.90;99.90;;;;;;5057686;28;20624;-93
2021/06/19 09:00:12;;;;;;;16.67;8.73;;;27.80;99.90;;;;;;5063948;28;20634;-93
2021/06/19 09:02:43;;;;;;;8.97;7.37;;;27.80;99.90;;;;;;5064793;28;20622;-93
2021/06/19 09:05:13;;;;;;;9.63;8.60;;;27.90;99.90;;;;;;5067839;28;20657;-93
2021/06/19 09:07:49;;;;;;;10.03;7.50;;;28.10;99.90;;;;;;5087303;28;20677;-93
2021/06/19 09:10:23;;;;;;;11.40;8.07;;;28.00;99.90;;;;;;5080190;28;20621;-93
2021/06/19 09:13:02;;;;;;;9.17;8.07;;;28.20;99.90;;;;;;5073189;28;21288;-93
2021/06/19 09:15:32;;;;;;;7.97;7.27;;;28.40;99.90;;;;;;5067096;28;20633;-94
2021/06/19 09:18:12;;;;;;;9.40;8.20;;;28.50;99.90;;;;;;5064100;28;20643;-94
2021/06/19 09:20:47;;;;;;;10.47;7.33;;;28.70;99.90;;;;;;5063142;28;20672;-93
2021/06/19 09:23:18;;;;;;;8.97;7.67;;;28.90;99.90;;;;;;5061640;28;20613;-92
2021/06/19 09:26:06;;;;;;;10.40;7.97;;;28.90;99.90;;;;;;5063883;28;20623;-95
2021/06/19 09:28:33;;;;;;;13.57;8.60;;;28.90;99.90;;;;;;5059250;28;20673;-95
2021/06/19 09:31:07;;;;;;;10.87;8.10;;;29.00;99.90;;;;;;5061199;28;20660;-95
2021/06/19 09:33:34;;;;;;;9.93;8.33;;;29.10;99.90;;;;;;5060120;28;20671;-92
2021/06/19 09:36:01;;;;;;;8.20;7.40;;;29.10;99.90;;;;;;5062532;28;20653;-92
2021/06/19 09:38:30;;;;;;;9.93;7.37;;;29.30;99.90;;;;;;5057287;28;20614;-92
2021/06/19 09:40:57;;;;;;;7.63;6.80;;;29.40;99.90;;;;;;5058734;28;20658;-92
2021/06/19 09:43:28;;;;;;;15.00;8.47;;;29.50;99.90;;;;;;5065170;28;20618;-93
2021/06/19 09:46:03;;;;;;;12.33;7.17;;;29.40;99.90;;;;;;5064877;28;20654;-92
2021/06/19 09:48:31;;;;;;;14.10;8.17;;;29.50;99.70;;;;;;5059075;28;20676;-91
2021/06/19 09:51:18;;;;;;;9.57;7.90;;;29.60;98.80;;;;;;5057783;28;20626;-91
2021/06/19 09:53:49;;;;;;;7.67;6.87;;;29.80;98.50;;;;;;5061107;28;20717;-91
2021/06/19 09:56:19;;;;;;;13.17;7.73;;;29.80;99.10;;;;;;5059944;28;20648;-91
2021/06/19 09:58:47;;;;;;;13.33;7.43;;;30.00;99.60;;;;;;5057791;28;20618;-91
2021/06/19 10:01:32;;;;;;;14.30;8.90;;;30.10;98.50;;;;;;5056109;28;20660;-92
2021/06/19 10:03:59;;;;;;;8.50;7.30;;;30.10;98.90;;;;;;5060616;28;20621;-92
2021/06/19 10:06:28;;;;;;;11.80;7.87;;;30.20;99.20;;;;;;5059322;28;20621;-91
2021/06/19 10:08:59;;;;;;;12.53;7.83;;;30.30;98.10;;;;;;5055657;28;20689;-92
2021/06/19 10:11:28;;;;;;;11.50;7.40;;;30.10;99.30;;;;;;5057907;28;20626;-91
2021/06/19 10:13:56;;;;;;;16.23;7.40;;;30.40;99.40;;;;;;5066525;28;20621;-92
2021/06/19 10:16:24;;;;;;;9.83;7.43;;;30.50;97.80;;;;;;5060925;28;20632;-91
2021/06/19 10:18:52;;;;;;;9.93;7.17;;;30.50;97.80;;;;;;5057333;28;20650;-91
2021/06/19 10:21:20;;;;;;;22.63;8.83;;;30.60;97.30;;;;;;5055960;28;20586;-90
2021/06/19 10:23:48;;;;;;;12.57;7.90;;;30.50;97.10;;;;;;5055442;28;20624;-91
2021/06/19 10:26:21;;;;;;;9.90;7.83;;;30.70;97.30;;;;;;5059902;28;21169;-92
2021/06/19 10:28:50;;;;;;;9.37;6.77;;;30.90;97.40;;;;;;5061861;28;20830;-92
2021/06/19 10:31:18;;;;;;;11.20;7.50;;;31.30;96.80;;;;;;5059620;28;20705;-92
2021/06/19 10:33:46;;;;;;;12.73;7.97;;;31.70;95.70;;;;;;5058095;28;20622;-94
2021/06/19 10:36:15;;;;;;;10.60;8.20;;;31.40;94.60;;;;;;5062647;28;20621;-93
2021/06/19 10:38:51;;;;;;;15.30;8.00;;;31.70;95.70;;;;;;5062934;28;20641;-93
2021/06/19 10:41:44;;;;;;;15.63;7.43;;;31.90;95.10;;;;;;5058726;28;20623;-94
2021/06/19 10:44:13;;;;;;;11.17;7.50;;;32.00;94.50;;;;;;5057048;28;21048;-94
2021/06/19 10:46:42;;;;;;;11.57;7.00;;;32.30;93.20;;;;;;5063132;28;20621;-93
2021/06/19 10:49:38;;;;;;;10.27;7.20;;;32.60;92.70;;;;;;5060738;28;20682;-94
2021/06/19 10:52:28;;;;;;;12.37;6.63;;;32.70;92.20;;;;;;5060317;28;21040;-93
2021/06/19 10:55:25;;;;;;;12.60;7.23;;;32.50;92.30;;;;;;5057038;28;20613;-95
2021/06/19 10:58:04;;;;;;;9.73;7.33;;;32.00;91.30;;;;;;5057241;28;20636;-93
2021/06/19 11:00:37;;;;;;;10.93;7.27;;;32.40;91.90;;;;;;5061884;28;21220;-94
2021/06/19 11:03:06;;;;;;;17.77;7.63;;;32.80;92.00;;;;;;5058113;28;20633;-93
2021/06/19 11:05:55;;;;;;;7.43;6.73;;;32.50;91.60;;;;;;5061016;28;20641;-92
2021/06/19 11:08:24;;;;;;;10.87;6.47;;;32.60;92.30;;;;;;5057147;28;20660;-94
2021/06/19 11:10:56;;;;;;;9.97;7.33;;;33.00;91.80;;;;;;5053966;28;20874;-90
2021/06/19 11:13:47;;;;;;;9.63;6.23;;;33.40;90.30;;;;;;5059325;28;21077;-93
2021/06/19 11:16:50;;;;;;;8.33;7.47;;;33.60;87.30;;;;;;5054793;28;21248;-94
2021/06/19 11:19:44;;;;;;;10.70;6.17;;;33.70;90.30;;;;;;5062694;28;20635;-94
2021/06/19 11:22:40;;;;;;;11.13;6.67;;;33.80;90.70;;;;;;5036433;28;20676;-92
2021/06/19 11:25:15;;;;;;;9.13;7.30;;;33.90;87.30;;;;;;5061016;28;21172;-92
2021/06/19 11:27:57;;;;;;;10.20;6.33;;;33.60;88.10;;;;;;5056035;28;20659;-93
2021/06/19 11:30:48;;;;;;;9.50;7.07;;;33.80;87.60;;;;;;5055602;28;20691;-92
2021/06/19 11:33:47;;;;;;;10.33;6.70;;;34.20;87.10;;;;;;5048788;28;20651;-93
2021/06/19 11:36:39;;;;;;;10.27;6.50;;;34.50;86.10;;;;;;5044775;28;21033;-92
2021/06/19 11:39:17;;;;;;;11.63;6.43;;;34.70;81.40;;;;;;5046791;28;21003;-93
2021/06/19 11:41:48;;;;;;;9.40;6.20;;;34.50;81.70;;;;;;5044946;28;20664;-92
2021/06/19 11:44:20;;;;;;;12.87;6.40;;;34.40;79.20;;;;;;5054574;28;20624;-92
2021/06/19 11:46:57;;;;;;;9.53;6.00;;;34.50;77.50;;;;;;5049383;28;21003;-93
2021/06/19 11:49:43;;;;;;;9.40;5.73;;;34.80;77.50;;;;;;5048722;28;20788;-93
2021/06/19 11:52:13;;;;;;;11.53;5.60;;;35.00;75.90;;;;;;5057452;28;20664;-94
2021/06/19 11:54:43;;;;;;;14.70;5.50;;;35.30;76.30;;;;;;5056417;28;20609;-94
2021/06/19 11:57:21;;;;;;;9.33;5.50;;;35.40;72.30;;;;;;5056650;28;20646;-93
2021/06/19 12:00:02;;;;;;;16.73;5.20;;;35.60;70.70;;;;;;5051656;28;21227;-92
2021/06/19 12:02:30;;;;;;;9.30;5.23;;;36.00;69.30;;;;;;5055243;28;21239;-93
2021/06/19 12:04:57;;;;;;;11.73;5.17;;;36.20;68.80;;;;;;5058615;28;20196;-92
2021/06/19 12:07:26;;;;;;;8.43;5.50;;;36.50;65.40;;;;;;5056710;28;20260;-93
2021/06/19 12:09:53;;;;;;;13.10;4.93;;;36.70;66.00;;;;;;5059705;28;20218;-93
2021/06/19 12:12:20;;;;;;;8.77;5.20;;;36.60;65.10;;;;;;5077400;28;20226;-93
2021/06/19 12:14:46;;;;;;;10.07;4.80;;;36.10;64.70;;;;;;5075424;28;20225;-94
2021/06/19 12:17:15;;;;;;;11.37;5.73;;;36.40;65.20;;;;;;5082697;28;20264;-92
2021/06/19 12:19:45;;;;;;;14.80;5.70;;;36.60;64.80;;;;;;5070050;28;20201;-93
2021/06/19 12:22:17;;;;;;;15.60;5.80;;;37.00;63.70;;;;;;5056175;28;20210;-93
2021/06/19 12:24:44;;;;;;;11.00;5.60;;;37.20;59.70;;;;;;5060692;28;20202;-93
2021/06/19 12:27:15;;;;;;;9.47;5.07;;;37.20;58.20;;;;;;5057275;28;20227;-93
2021/06/19 12:29:47;;;;;;;11.87;4.70;;;37.50;56.80;;;;;;5057173;28;20299;-94
2021/06/19 12:32:31;;;;;;;11.03;5.17;;;37.20;58.20;;;;;;5057431;28;20674;-93
2021/06/19 12:35:03;;;;;;;6.07;4.03;;;36.80;57.70;;;;;;5056693;28;20210;-94
2021/06/19 12:37:34;;;;;;;11.07;5.43;;;36.80;57.70;;;;;;5055591;28;20712;-93
2021/06/19 12:40:03;;;;;;;12.80;5.37;;;37.20;59.20;;;;;;5059704;28;20678;-95
2021/06/19 12:42:39;;;;;;;8.50;4.47;;;37.70;57.00;;;;;;5068165;28;20213;-93
2021/06/19 12:45:11;;;;;;;8.87;4.73;;;37.90;55.50;;;;;;5057965;28;20202;-93
2021/06/19 12:47:43;;;;;;;8.17;5.03;;;37.90;54.40;;;;;;5051508;28;20894;-92
2021/06/19 12:50:13;;;;;;;11.07;4.70;;;37.50;53.80;;;;;;5056672;28;20238;-92
2021/06/19 12:52:59;;;;;;;10.70;4.97;;;37.30;52.50;;;;;;5061944;28;20216;-93
2021/06/19 12:55:27;;;;;;;10.87;4.30;;;37.30;52.60;;;;;;5057425;28;20202;-95
2021/06/19 12:58:13;;;;;;;8.63;4.50;;;37.10;54.20;;;;;;5054203;28;20551;-95
2021/06/19 13:00:43;;;;;;;5.40;4.13;;;37.40;52.10;;;;;;5055728;28;20206;-94
2021/06/19 13:03:13;;;;;;;10.47;4.50;;;37.70;54.30;;;;;;5060909;28;20213;-93
2021/06/19 13:05:55;;;;;;;15.83;5.73;;;38.20;52.80;;;;;;5054937;28;20199;-94
2021/06/19 13:08:25;;;;;;;12.90;5.30;;;38.60;52.30;;;;;;5052494;28;20222;-93
2021/06/19 13:10:52;;;;;;;6.80;4.23;;;38.50;51.00;;;;;;5053092;28;20206;-93
2021/06/19 13:13:41;;;;;;;8.80;4.97;;;38.30;52.30;;;;;;5052669;28;20203;-94